Time;durP1;ratioP1;P1;durP2;ratioP2;P2;SDS_P1;SDS_P2;PMS_P1;PMS_P2;Temp;Humidity;BMP_temperature;BMP_pressure;BME280_temperature;BME280_humidity;BME280_pressure;Samples;Min_cycle;Max_cycle;Signal;HPM_P1;HPM_P2
2021/04/01 00:00:50;;;;;;;12.90;9.10;;;;;;;14.92;29.33;101156.20;1730261;83;20221;-83
2021/04/01 00:03:18;;;;;;;21.20;10.20;;;;;;;14.93;29.24;101152.99;1734249;81;21678;-83
2021/04/01 00:05:46;;;;;;;14.78;8.63;;;;;;;14.95;29.27;101152.33;1705331;83;21133;-83
2021/04/01 00:08:13;;;;;;;15.20;9.00;;;;;;;14.94;29.23;101153.32;1731561;81;21147;-84
2021/04/01 00:10:44;;;;;;;13.72;8.18;;;;;;;14.95;29.33;101153.69;1742296;81;21183;-84
2021/04/01 00:13:12;;;;;;;14.83;9.10;;;;;;;14.95;29.30;101146.94;1730512;81;21088;-81
2021/04/01 00:15:41;;;;;;;14.73;8.83;;;;;;;14.94;29.20;101151.97;1701430;81;21595;-82
2021/04/01 00:18:11;;;;;;;14.33;9.05;;;;;;;14.91;29.25;101147.78;1734265;81;21641;-81
2021/04/01 00:20:39;;;;;;;13.85;8.95;;;;;;;14.90;29.28;101145.27;1730256;83;21656;-83
2021/04/01 00:23:06;;;;;;;16.20;8.83;;;;;;;14.91;29.31;101142.38;1734834;81;21245;-85
2021/04/01 00:25:34;;;;;;;16.02;10.08;;;;;;;14.93;29.27;101136.81;1740504;81;21072;-83
2021/04/01 00:28:01;;;;;;;;;;;;;;;14.92;29.35;101131.92;1707833;83;21125;-81
2021/04/01 00:30:28;;;;;;;14.95;8.78;;;;;;;14.92;29.37;101135.97;1737960;81;20397;-83
2021/04/01 00:32:56;;;;;;;16.97;8.73;;;;;;;14.89;29.42;101127.37;1737699;81;21619;-83
2021/04/01 00:35:23;;;;;;;14.83;9.00;;;;;;;14.90;29.40;101120.98;1742090;81;21628;-81
2021/04/01 00:37:52;;;;;;;14.83;9.35;;;;;;;14.88;29.43;101120.30;1731615;83;21123;-81
2021/04/01 00:40:23;;;;;;;17.80;8.58;;;;;;;14.86;29.54;101119.64;1703122;83;21150;-82
2021/04/01 00:42:51;;;;;;;15.55;8.53;;;;;;;14.83;29.60;101113.22;1712588;83;21122;-81
2021/04/01 00:45:18;;;;;;;;;;;;;;;14.79;29.69;101116.76;1714269;81;21162;-84
2021/04/01 00:47:50;;;;;;;16.97;9.50;;;;;;;14.77;29.64;101111.22;1737697;81;20240;-85
2021/04/01 00:50:30;;;;;;;14.55;10.03;;;;;;;14.40;30.16;101109.83;1730004;83;21197;-82
2021/04/01 00:52:58;;;;;;;15.60;9.48;;;;;;;14.34;30.26;101110.48;1705140;83;21140;-81
2021/04/01 00:55:25;;;;;;;19.00;9.60;;;;;;;14.30;30.28;101103.73;1739083;81;21171;-83
2021/04/01 00:57:56;;;;;;;17.62;10.18;;;;;;;14.66;29.80;101101.09;1741822;81;21138;-81
2021/04/01 01:00:26;;;;;;;21.07;10.70;;;;;;;14.70;29.82;101094.34;1738559;81;21141;-81
2021/04/01 01:02:53;;;;;;;16.30;9.30;;;;;;;14.74;29.81;101100.76;1730834;83;21115;-82
2021/04/01 01:05:21;;;;;;;15.50;9.68;;;;;;;14.71;29.83;101093.33;1707994;83;21205;-81
2021/04/01 01:07:50;;;;;;;16.52;10.08;;;;;;;14.74;29.88;101084.58;1735532;81;21174;-82
2021/04/01 01:10:28;;;;;;;19.62;9.50;;;;;;;14.75;29.75;101084.91;1712019;83;21141;-81
2021/04/01 01:13:00;;;;;;;19.75;9.38;;;;;;;14.75;29.80;101084.91;1741299;81;21158;-84
2021/04/01 01:15:29;;;;;;;15.83;9.53;;;;;;;14.70;29.85;101069.23;1759249;80;21660;-85
2021/04/01 01:17:57;;;;;;;25.30;9.28;;;;;;;14.68;29.95;101069.42;1755173;81;21385;-84
2021/04/01 01:20:26;;;;;;;16.93;8.70;;;;;;;14.71;29.91;101068.22;1725510;83;21188;-82
2021/04/01 01:22:55;;;;;;;17.77;9.35;;;;;;;14.68;30.00;101072.62;1752235;81;21204;-84
2021/04/01 01:25:23;;;;;;;14.07;9.03;;;;;;;14.69;30.01;101072.95;1670474;83;21519;-83
2021/04/01 01:27:51;;;;;;;15.75;9.23;;;;;;;14.71;30.03;101072.27;1755606;81;21149;-85
2021/04/01 01:30:20;;;;;;;19.40;9.78;;;;;;;14.71;30.03;101076.30;1731677;81;21121;-84
2021/04/01 01:32:55;;;;;;;16.82;9.88;;;;;;;14.70;29.99;101074.13;1726111;83;21181;-84
2021/04/01 01:35:25;;;;;;;14.78;9.13;;;;;;;14.69;30.00;101068.40;1725266;83;21181;-83
2021/04/01 01:37:58;;;;;;;19.85;10.58;;;;;;;14.66;30.04;101070.08;1755950;81;21118;-84
2021/04/01 01:41:33;;;;;;;15.40;11.30;;;;;;;14.69;30.01;101063.01;1842644;77;28068;-85
2021/04/01 01:44:01;;;;;;;15.48;9.45;;;;;;;14.72;29.91;101064.53;1827619;78;20978;-82
2021/04/01 01:46:28;;;;;;;22.15;9.73;;;;;;;14.76;29.77;101064.53;1828502;78;20935;-85
2021/04/01 01:48:58;;;;;;;14.60;9.53;;;;;;;14.75;29.76;101058.78;1826174;78;21081;-84
2021/04/01 01:51:28;;;;;;;15.18;9.68;;;;;;;14.74;29.92;101052.22;1824634;78;20963;-83
2021/04/01 01:53:56;;;;;;;18.60;9.20;;;;;;;14.71;29.92;101054.23;1824572;78;21046;-83
2021/04/01 01:56:24;;;;;;;;;;;;;;;14.69;29.93;101053.57;1827285;78;21151;-84
2021/04/01 01:58:53;;;;;;;24.37;8.60;;;;;;;14.64;29.99;101051.89;1824508;78;20267;-83
2021/04/01 02:01:22;;;;;;;33.13;9.13;;;;;;;14.59;30.07;101038.59;1824572;78;21508;-85
2021/04/01 02:03:50;;;;;;;14.47;8.40;;;;;;;14.58;30.21;101044.50;1788440;78;21062;-86
2021/04/01 02:06:19;;;;;;;29.60;9.18;;;;;;;14.55;30.29;101031.34;1825030;78;21508;-84
2021/04/01 02:08:48;;;;;;;47.35;10.65;;;;;;;14.52;30.39;101033.02;1824726;78;21050;-83
2021/04/01 02:11:16;;;;;;;63.65;19.00;;;;;;;14.51;30.47;101036.73;1824386;78;21581;-84
2021/04/01 02:13:45;;;;;;;87.88;37.13;;;;;;;14.51;30.57;101034.55;1824370;78;21615;-83
2021/04/01 02:16:13;;;;;;;100.92;43.45;;;;;;;14.49;30.61;101041.47;1824435;78;21093;-83
2021/04/01 02:18:40;;;;;;;;;;;;;;;14.46;30.65;101037.21;1827324;78;21062;-82
2021/04/01 02:21:11;;;;;;;99.42;40.30;;;;;;;14.45;30.74;101033.35;1825013;78;20130;-81
2021/04/01 02:23:39;;;;;;;103.20;42.15;;;;;;;14.42;30.78;101033.68;1827332;78;20970;-83
2021/04/01 02:26:07;;;;;;;67.65;30.85;;;;;;;14.43;30.86;101038.05;1816564;78;21065;-81
2021/04/01 02:28:36;;;;;;;50.23;23.05;;;;;;;14.42;30.98;101033.68;1824649;78;21089;-80
2021/04/01 02:31:07;;;;;;;28.60;14.15;;;;;;;14.42;30.96;101033.68;1824266;78;21117;-81
2021/04/01 02:33:38;;;;;;;15.13;9.90;;;;;;;14.40;30.91;101037.06;1824248;78;21450;-82
2021/04/01 02:36:06;;;;;;;17.98;9.50;;;;;;;14.38;30.77;101029.13;1824382;78;21145;-81
2021/04/01 02:38:33;;;;;;;15.70;9.20;;;;;;;14.36;30.69;101017.69;1824313;78;21105;-80
2021/04/01 02:41:01;;;;;;;17.10;11.00;;;;;;;14.35;30.77;101025.92;1823196;78;21117;-80
2021/04/01 02:43:34;;;;;;;24.80;12.60;;;;;;;14.33;30.75;101024.75;1824265;78;21054;-81
2021/04/01 02:46:04;;;;;;;22.05;13.20;;;;;;;14.35;30.86;101016.48;1824359;78;21600;-81
2021/04/01 02:48:31;;;;;;;23.18;11.83;;;;;;;14.34;30.90;101022.89;1824342;78;21065;-80
2021/04/01 02:50:59;;;;;;;19.45;10.63;;;;;;;14.33;30.87;101014.48;1824126;78;21082;-83
2021/04/01 02:53:26;;;;;;;17.45;9.93;;;;;;;14.30;30.83;101018.84;1823797;78;21066;-83
2021/04/01 02:55:56;;;;;;;17.95;10.03;;;;;;;14.26;30.90;101018.84;1823296;78;21145;-80
2021/04/01 02:58:23;;;;;;;16.32;9.00;;;;;;;14.24;30.95;101012.80;1823731;78;21128;-82
2021/04/01 03:00:52;;;;;;;16.97;10.10;;;;;;;14.23;30.98;101016.52;1822442;78;21695;-81
2021/04/01 03:05:49;;;;;;;;;;;;;;;14.14;31.15;101015.16;1824820;78;21192;-79
2021/04/01 03:08:16;;;;;;;13.75;9.30;;;;;;;14.14;31.22;101016.50;1821502;78;20302;-81
2021/04/01 03:10:45;;;;;;;15.15;9.13;;;;;;;14.09;31.28;101013.47;1821369;78;21153;-80
2021/04/01 03:13:13;;;;;;;17.67;9.63;;;;;;;14.08;31.33;101013.14;1812860;78;21121;-82
2021/04/01 03:15:42;;;;;;;16.90;10.25;;;;;;;14.06;31.46;101012.45;1813505;78;21652;-79
2021/04/01 03:18:10;;;;;;;17.07;9.30;;;;;;;14.05;31.56;101016.16;1822186;78;21600;-79
2021/04/01 03:20:40;;;;;;;17.55;9.45;;;;;;;14.06;31.66;101009.76;1820695;78;21251;-78
2021/04/01 03:23:07;;;;;;;13.30;9.25;;;;;;;14.03;31.64;101007.39;1812955;78;21177;-79
2021/04/01 03:25:35;;;;;;;14.73;9.70;;;;;;;14.03;31.63;101011.42;1815964;78;21205;-81
2021/04/01 03:28:03;;;;;;;15.18;9.75;;;;;;;14.02;31.68;101003.02;1816161;78;21173;-79
2021/04/01 03:30:31;;;;;;;19.55;9.55;;;;;;;13.61;32.29;100999.42;1819445;78;21483;-81
2021/04/01 03:32:58;;;;;;;;;;;;;;;13.53;32.46;101006.96;1824124;78;21635;-80
2021/04/01 03:35:25;;;;;;;14.13;9.50;;;;;;;13.47;32.43;101008.13;1820752;78;20267;-80
2021/04/01 03:37:57;;;;;;;16.57;9.90;;;;;;;13.40;32.63;101004.77;1842706;77;21184;-80
2021/04/01 03:40:26;;;;;;;16.87;9.58;;;;;;;13.39;32.68;101005.74;1843065;77;21636;-79
2021/04/01 03:42:54;;;;;;;16.20;10.38;;;;;;;13.40;32.70;101003.42;1821699;77;21141;-79
2021/04/01 03:45:21;;;;;;;21.68;10.30;;;;;;;13.38;32.80;101001.88;1815726;78;21663;-79
2021/04/01 03:47:50;;;;;;;20.32;10.50;;;;;;;13.39;32.85;101003.56;1839168;77;21212;-78
2021/04/01 03:50:17;;;;;;;18.67;10.40;;;;;;;13.44;32.76;101001.22;1819837;78;21200;-81
2021/04/01 03:52:45;;;;;;;18.67;10.32;;;;;;;13.37;32.83;101001.55;1821412;78;21220;-80
2021/04/01 03:57:58;;;;;;;19.98;10.98;;;;;;;13.79;32.26;101006.02;1821810;78;21164;-79
2021/04/01 04:00:28;;;;;;;18.90;10.85;;;;;;;13.78;32.26;100999.80;1822172;78;21165;-79
2021/04/01 04:03:06;;;;;;;21.48;11.05;;;;;;;13.80;32.24;100997.77;1822369;78;21598;-81
2021/04/01 04:10:57;;;;;;;19.62;12.68;;;;;;;13.81;32.34;101001.33;1828086;77;21180;-80
2021/04/01 04:15:53;;;;;;;28.62;17.87;;;;;;;13.80;32.38;100998.28;1819944;78;21188;-79
2021/04/01 04:18:21;;;;;;;33.15;18.95;;;;;;;13.79;32.33;100996.59;1784217;78;21212;-79
2021/04/01 04:20:48;;;;;;;42.17;21.87;;;;;;;13.77;32.40;100999.47;1819880;78;21160;-80
2021/04/01 04:23:17;;;;;;;49.23;23.20;;;;;;;13.78;32.42;100991.72;1804843;78;21184;-80
2021/04/01 04:25:44;;;;;;;51.83;22.30;;;;;;;13.78;32.48;100989.53;1811095;77;21666;-80
2021/04/01 04:30:41;;;;;;;40.80;19.30;;;;;;;13.74;32.59;100984.98;1821078;78;20286;-82
2021/04/01 04:33:08;;;;;;;49.70;19.32;;;;;;;13.73;32.69;100986.00;1820761;78;21133;-82
2021/04/01 04:35:36;;;;;;;42.98;20.45;;;;;;;13.72;32.71;100984.32;1820826;78;21193;-77
2021/04/01 04:38:03;;;;;;;;;;;;;;;13.71;32.83;100982.10;1824573;78;21172;-82
2021/04/01 04:40:30;;;;;;;32.98;17.98;;;;;;;13.74;32.86;100977.41;1820328;77;20244;-82
2021/04/01 04:42:57;;;;;;;;;;;;;;;13.74;32.94;100980.10;1824473;78;21156;-81
2021/04/01 04:45:25;;;;;;;33.60;15.53;;;;;;;13.75;32.99;100981.27;1784846;78;20271;-81
2021/04/01 04:47:52;;;;;;;24.30;14.78;;;;;;;13.76;33.07;100978.91;1820781;78;21734;-81
2021/04/01 04:50:19;;;;;;;32.60;16.32;;;;;;;13.78;33.09;100973.38;1820796;77;21192;-77
2021/04/01 04:52:46;;;;;;;;;;;;;;;13.79;33.17;100969.16;1830624;77;21142;-79
2021/04/01 04:55:13;;;;;;;33.33;16.62;;;;;;;13.84;33.17;100968.16;1798951;78;20268;-78
2021/04/01 04:57:46;;;;;;;38.45;17.05;;;;;;;13.87;33.25;100965.65;1813525;77;21179;-79
2021/04/01 05:05:24;;;;;;;38.25;18.12;;;;;;;14.06;33.30;100963.97;1817974;78;21577;-79
2021/04/01 05:07:51;;;;;;;31.95;16.17;;;;;;;14.14;33.34;100963.13;1779256;78;21207;-78
2021/04/01 05:10:19;;;;;;;27.70;16.93;;;;;;;14.20;33.40;100963.28;1813615;77;21205;-77
2021/04/01 05:12:51;;;;;;;33.48;16.17;;;;;;;14.28;33.28;100957.56;1815818;77;21164;-78
2021/04/01 05:15:16;;;;;;;38.05;17.85;;;;;;;14.35;33.29;100953.16;1817688;77;21102;-80
2021/04/01 05:17:43;;;;;;;44.45;17.73;;;;;;;14.43;33.22;100951.30;1812371;77;21728;-80
2021/04/01 05:20:12;;;;;;;35.78;17.45;;;;;;;14.50;33.41;100946.62;1808508;77;21121;-78
2021/04/01 05:22:58;;;;;;;39.65;18.85;;;;;;;14.60;33.28;100951.30;1817369;77;21627;-78
2021/04/01 05:25:23;;;;;;;43.00;17.98;;;;;;;14.68;33.26;100946.73;1820240;77;21010;-77
2021/04/01 05:27:55;;;;;;;37.98;18.32;;;;;;;14.80;33.25;100943.65;1825273;77;21215;-82
2021/04/01 05:30:23;;;;;;;38.05;19.48;;;;;;;14.90;33.22;100937.57;1815247;78;21186;-78
2021/04/01 05:32:50;;;;;;;47.48;19.95;;;;;;;14.98;33.22;100937.51;1813827;77;21211;-79
2021/04/01 05:35:17;;;;;;;44.45;19.45;;;;;;;15.06;33.10;100935.30;1815760;77;21129;-79
2021/04/01 05:37:45;;;;;;;38.00;18.20;;;;;;;15.08;33.08;100936.81;1818755;77;21686;-78
2021/04/01 05:40:15;;;;;;;37.08;18.07;;;;;;;15.07;33.06;100932.92;1816060;77;21212;-80
2021/04/01 05:42:45;;;;;;;37.33;19.25;;;;;;;15.05;33.08;100926.88;1778132;78;21273;-80
2021/04/01 05:45:39;;;;;;;28.87;16.20;;;;;;;15.07;33.20;100929.71;1814982;77;21419;-80
2021/04/01 05:48:02;;;;;;;;;;;;;;;15.10;33.39;100919.92;1819595;77;21852;-79
2021/04/01 05:50:59;;;;;;;35.73;15.93;;;;;;;15.22;33.37;100918.52;1818283;77;20329;-80
2021/04/01 06:04:32;;;;;;;36.73;18.00;;;;;;;15.59;33.20;100908.84;1820237;77;21158;-79
2021/04/01 06:07:08;;;;;;;48.92;17.67;;;;;;;15.70;33.30;100904.89;1822565;77;21090;-79
2021/04/01 06:09:44;;;;;;;30.60;16.62;;;;;;;15.83;33.29;100908.34;1759918;78;21191;-79
2021/04/01 06:12:12;;;;;;;;;;;;;;;15.95;33.00;100904.20;1822392;77;21129;-79
2021/04/01 06:15:09;;;;;;;30.77;16.85;;;;;;;16.05;32.98;100903.94;1816977;77;20273;-80
2021/04/01 06:20:27;;;;;;;30.75;18.10;;;;;;;16.42;32.84;100893.08;1864845;75;23155;-80
2021/04/01 06:22:55;;;;;;;31.82;16.60;;;;;;;16.55;32.55;100901.06;1805119;77;21180;-78
2021/04/01 06:25:23;;;;;;;29.60;16.70;;;;;;;16.71;32.34;100888.20;1840400;77;21209;-77
2021/04/01 06:27:54;;;;;;;30.62;15.28;;;;;;;16.87;32.21;100893.09;1844158;77;21695;-77
2021/04/01 06:33:04;;;;;;;33.25;16.65;;;;;;;17.16;31.89;100884.91;1839561;77;21173;-78
2021/04/01 06:35:34;;;;;;;35.38;17.32;;;;;;;17.32;31.76;100885.72;1807904;77;21356;-80
2021/04/01 06:40:55;;;;;;;32.67;17.60;;;;;;;17.70;31.50;100885.77;1771533;79;21137;-79
2021/04/01 06:43:52;;;;;;;29.35;15.95;;;;;;;17.90;31.26;100890.59;1771488;79;21675;-81
2021/04/01 06:46:20;;;;;;;26.52;14.87;;;;;;;18.09;31.17;100879.58;1778585;79;21125;-79
2021/04/01 06:51:32;;;;;;;31.40;17.67;;;;;;;18.37;30.81;100879.55;1743803;79;21226;-80
2021/04/01 06:56:45;;;;;;;35.90;18.02;;;;;;;18.55;30.53;100870.91;1767658;79;21132;-78
2021/04/01 06:59:21;;;;;;;36.15;16.62;;;;;;;18.59;30.59;100873.02;1774898;79;21612;-79
2021/04/01 07:01:51;;;;;;;42.78;17.82;;;;;;;18.60;30.40;100867.06;1775330;79;21169;-78
2021/04/01 07:04:17;;;;;;;28.38;15.28;;;;;;;18.58;30.51;100874.58;1770422;79;21169;-78
2021/04/01 07:06:49;;;;;;;26.02;15.93;;;;;;;18.62;30.65;100864.48;1740734;79;21109;-78
2021/04/01 07:12:13;;;;;;;25.35;15.58;;;;;;;18.81;30.39;100863.45;1772481;79;21405;-78
2021/04/01 07:14:42;;;;;;;27.87;15.35;;;;;;;18.94;30.50;100858.05;1721191;79;21600;-79
2021/04/01 07:17:38;;;;;;;32.67;16.75;;;;;;;19.16;30.42;100847.89;1771637;79;21144;-79
2021/04/01 07:47:32;;;;;;;30.90;16.97;;;;;;;21.63;27.73;100834.38;1768255;80;21673;-79
2021/04/01 07:50:12;;;;;;;25.87;18.10;;;;;;;21.82;27.60;100837.16;1766619;80;21104;-79
2021/04/01 07:53:02;;;;;;;34.43;18.62;;;;;;;22.07;27.37;100824.84;1792330;77;22753;-78
2021/04/01 07:55:54;;;;;;;;;;;;;;;;;;;;;
2021/04/01 08:03:58;;;;;;;114.20;49.73;;;;;;;22.62;26.66;100818.08;1755197;80;21625;-78
2021/04/01 08:06:32;;;;;;;52.23;27.10;;;;;;;22.64;26.95;100807.78;1752825;80;21137;-80
2021/04/01 08:09:04;;;;;;;33.95;16.60;;;;;;;22.75;26.88;100805.09;1753978;80;21134;-79
2021/04/01 08:11:33;;;;;;;56.37;22.85;;;;;;;22.88;26.47;100803.25;1756798;80;21093;-77
2021/04/01 08:14:11;;;;;;;71.07;27.30;;;;;;;22.98;26.46;100799.46;1729496;80;20944;-79
2021/04/01 08:19:23;;;;;;;83.55;35.30;;;;;;;23.02;26.34;100783.73;1753281;80;21153;-77
2021/04/01 08:21:53;;;;;;;98.87;43.55;;;;;;;23.04;26.16;100786.26;1717876;80;21195;-79
2021/04/01 08:27:34;;;;;;;42.43;18.35;;;;;;;22.97;26.51;100774.58;1737809;80;21775;-80
2021/04/01 08:33:06;;;;;;;51.58;21.80;;;;;;;23.06;26.43;100780.55;1723938;81;21240;-78
2021/04/01 08:35:35;;;;;;;28.52;17.42;;;;;;;23.18;26.23;100770.50;1747073;80;21594;-77
2021/04/01 08:38:14;;;;;;;53.15;24.75;;;;;;;23.24;26.03;100777.22;1740117;80;21118;-78
2021/04/01 08:40:44;;;;;;;48.17;17.82;;;;;;;23.21;26.19;100766.77;1724653;80;21630;-79
2021/04/01 08:43:35;;;;;;;30.00;16.37;;;;;;;23.16;26.10;100767.15;1710230;82;21145;-79
2021/04/01 08:46:33;;;;;;;27.90;14.78;;;;;;;23.14;26.15;100761.09;1729661;80;21167;-77
2021/04/01 08:49:10;;;;;;;52.67;23.30;;;;;;;23.20;26.13;100760.15;1744616;80;21647;-80
2021/04/01 08:52:17;;;;;;;63.78;29.52;;;;;;;23.24;26.05;100758.08;1753385;80;21122;-80
2021/04/01 08:55:16;;;;;;;95.83;27.50;;;;;;;23.19;26.26;100748.39;1752770;80;21034;-78
2021/04/01 08:58:10;;;;;;;64.97;24.27;;;;;;;23.22;26.49;100747.11;1725662;80;21165;-78
2021/04/01 09:00:41;;;;;;;43.63;18.40;;;;;;;23.20;26.36;100746.48;1754377;80;21161;-78
2021/04/01 09:03:14;;;;;;;31.68;16.67;;;;;;;23.16;26.47;100751.58;1752752;80;21599;-80
2021/04/01 09:05:53;;;;;;;69.58;26.05;;;;;;;23.15;26.44;100748.55;1730614;80;21132;-78
2021/04/01 09:08:28;;;;;;;53.05;18.57;;;;;;;23.07;26.68;100736.59;1739568;81;21585;-80
2021/04/01 09:10:59;;;;;;;38.38;15.35;;;;;;;22.94;26.75;100733.55;1727229;80;21146;-81
2021/04/01 09:13:31;;;;;;;20.52;11.48;;;;;;;22.75;26.97;100733.25;1730459;80;21121;-78
2021/04/01 09:16:20;;;;;;;23.15;12.35;;;;;;;22.66;27.10;100740.11;1745390;80;21149;-79
2021/04/01 09:18:46;;;;;;;44.80;22.05;;;;;;;22.54;27.31;100729.15;1742571;80;21142;-80
2021/04/01 09:21:14;;;;;;;41.08;18.95;;;;;;;22.51;27.47;100718.69;1742875;80;21663;-78
2021/04/01 09:23:43;;;;;;;24.20;12.98;;;;;;;22.54;27.70;100718.23;1741406;80;21145;-79
2021/04/01 09:26:12;;;;;;;36.13;13.90;;;;;;;22.60;27.78;100713.20;1744597;80;21177;-79
2021/04/01 09:28:43;;;;;;;25.02;14.20;;;;;;;22.64;27.62;100710.31;1726373;80;22370;-79
2021/04/01 09:31:14;;;;;;;20.48;11.40;;;;;;;22.66;27.77;100708.17;1701147;82;21179;-79
2021/04/01 09:33:43;;;;;;;20.43;11.43;;;;;;;22.66;27.69;100705.44;1688109;83;21095;-82
2021/04/01 09:36:19;;;;;;;;;;;;;;;22.62;27.53;100698.80;1714587;81;21044;-81
2021/04/01 09:38:57;;;;;;;;;;;;;;;22.55;27.68;100695.32;1703059;82;20277;-81
2021/04/01 09:41:29;;;;;;;28.90;9.50;;;;;;;22.48;27.79;100693.20;1705935;82;20739;-81
2021/04/01 09:43:56;;;;;;;15.83;8.05;;;;;;;22.42;28.10;100696.33;1703531;82;21214;-80
2021/04/01 09:46:24;;;;;;;14.70;8.60;;;;;;;22.38;28.15;100689.66;1685490;83;21214;-82
2021/04/01 09:49:01;;;;;;;13.43;6.85;;;;;;;22.33;28.37;100694.98;1703142;82;21836;-79
2021/04/01 09:51:31;;;;;;;16.10;6.78;;;;;;;22.28;28.53;100680.66;1706356;82;21743;-79
2021/04/01 09:54:00;;;;;;;15.40;6.97;;;;;;;22.22;28.87;100682.13;1707716;82;21633;-80
2021/04/01 09:56:31;;;;;;;22.42;11.45;;;;;;;22.19;29.12;100683.94;1707256;82;21170;-81
2021/04/01 09:59:00;;;;;;;68.60;23.57;;;;;;;22.14;28.70;100676.97;1705855;82;21151;-79
2021/04/01 10:01:30;;;;;;;24.77;10.98;;;;;;;22.10;28.79;100681.19;1707329;82;21181;-78
2021/04/01 10:04:20;;;;;;;14.55;8.25;;;;;;;22.06;29.03;100669.06;1704639;82;21609;-79
2021/04/01 10:06:51;;;;;;;23.95;9.95;;;;;;;21.99;29.18;100667.80;1681377;83;21393;-81
2021/04/01 10:09:24;;;;;;;43.83;14.30;;;;;;;21.98;29.30;100656.05;1709305;82;21135;-81
2021/04/01 10:11:57;;;;;;;23.57;11.45;;;;;;;21.98;29.23;100664.73;1679615;82;21192;-79
2021/04/01 10:14:26;;;;;;;17.98;8.88;;;;;;;21.92;29.02;100660.20;1705125;82;21122;-78
2021/04/01 10:17:07;;;;;;;15.43;8.53;;;;;;;21.76;29.08;100650.22;1703614;82;21186;-82
2021/04/01 10:19:44;;;;;;;15.70;8.28;;;;;;;21.68;29.48;100654.61;1709517;81;21225;-85
2021/04/01 10:22:27;;;;;;;14.83;8.85;;;;;;;21.69;29.55;100657.63;1709310;82;21171;-78
2021/04/01 10:27:59;;;;;;;15.00;9.18;;;;;;;21.72;29.39;100643.55;1686250;82;21169;-79
2021/04/01 10:30:23;;;;;;;;;;;;;;;21.71;29.58;100643.26;1712201;82;21146;-80
2021/04/01 10:32:54;;;;;;;17.60;8.98;;;;;;;21.72;29.56;100635.38;1706366;82;20245;-81
2021/04/01 10:35:23;;;;;;;13.15;7.92;;;;;;;21.70;29.63;100637.48;1651338;83;21132;-80
2021/04/01 10:37:59;;;;;;;15.78;8.63;;;;;;;21.71;29.76;100624.17;1708397;82;21125;-79
2021/04/01 10:40:23;;;;;;;23.60;10.10;;;;;;;21.78;29.94;100624.08;1684454;82;21143;-79
2021/04/01 10:43:06;;;;;;;15.28;7.72;;;;;;;21.85;29.76;100621.30;1692392;82;21217;-78
2021/04/01 10:45:40;;;;;;;12.80;7.80;;;;;;;21.90;29.70;100610.52;1712489;81;21122;-80
2021/04/01 10:48:36;;;;;;;11.83;7.92;;;;;;;21.92;29.65;100605.66;1721455;81;21118;-80
2021/04/01 10:51:09;;;;;;;11.83;7.78;;;;;;;21.95;29.41;100594.30;1715767;81;21651;-80
2021/04/01 10:53:41;;;;;;;11.97;7.72;;;;;;;21.96;29.59;100600.05;1747350;81;21133;-79
2021/04/01 10:56:10;;;;;;;27.13;9.68;;;;;;;21.93;29.60;100590.95;1750044;80;21122;-79
2021/04/01 10:58:54;;;;;;;16.62;8.75;;;;;;;21.93;29.60;100592.31;1749204;80;21130;-77
2021/04/01 11:01:36;;;;;;;20.88;9.23;;;;;;;21.92;29.55;100588.77;1752474;80;21113;-80
2021/04/01 11:04:05;;;;;;;40.25;17.37;;;;;;;21.94;29.67;100587.19;1751117;80;21094;-81
2021/04/01 11:06:36;;;;;;;22.00;11.12;;;;;;;21.91;29.32;100582.19;1751377;80;21132;-78
2021/04/01 11:09:04;;;;;;;13.90;8.68;;;;;;;21.87;29.78;100585.06;1746555;80;21184;-79
2021/04/01 11:14:15;;;;;;;16.50;8.35;;;;;;;21.89;29.82;100584.29;1735916;80;21191;-81
2021/04/01 11:16:45;;;;;;;15.68;8.05;;;;;;;21.89;29.39;100570.16;1710093;81;21115;-78
2021/04/01 11:19:13;;;;;;;13.28;7.85;;;;;;;21.87;29.69;100568.70;1735617;80;21146;-79
2021/04/01 11:21:51;;;;;;;15.83;7.75;;;;;;;21.85;29.80;100564.02;1721810;81;21103;-78
2021/04/01 11:24:30;;;;;;;19.00;8.15;;;;;;;21.85;29.66;100558.58;1723145;81;21032;-80
2021/04/01 11:27:13;;;;;;;14.70;7.87;;;;;;;21.83;29.67;100551.96;1721810;81;21141;-78
2021/04/01 11:29:50;;;;;;;20.55;9.73;;;;;;;21.76;29.17;100550.70;1744883;80;20964;-78
2021/04/01 11:32:25;;;;;;;16.73;8.45;;;;;;;21.63;29.44;100545.95;1727742;80;21191;-81
2021/04/01 11:34:59;;;;;;;54.77;15.53;;;;;;;21.55;29.85;100552.53;1731533;80;21141;-79
2021/04/01 11:37:33;;;;;;;17.20;9.13;;;;;;;21.58;30.06;100530.81;1735889;82;21300;-80
2021/04/01 11:40:06;;;;;;;16.52;7.80;;;;;;;21.61;30.22;100533.89;1750317;80;21149;-82
2021/04/01 11:42:34;;;;;;;10.75;6.90;;;;;;;21.64;29.80;100529.89;1727013;81;21145;-80
2021/04/01 11:45:06;;;;;;;15.78;7.67;;;;;;;21.66;29.88;100525.86;1752759;80;21125;-81
2021/04/01 11:47:35;;;;;;;13.22;8.48;;;;;;;21.66;30.11;100519.58;1728021;80;21138;-81
2021/04/01 11:50:06;;;;;;;17.00;7.12;;;;;;;21.66;30.02;100505.41;1722742;81;21183;-81
2021/04/01 11:52:36;;;;;;;10.88;6.87;;;;;;;21.67;30.13;100509.82;1751870;80;21090;-80
2021/04/01 11:55:11;;;;;;;13.25;7.00;;;;;;;21.70;30.33;100513.43;1713387;81;21126;-79
2021/04/01 11:57:43;;;;;;;18.05;6.95;;;;;;;21.73;30.24;100512.16;1750914;80;21182;-80
2021/04/01 12:00:16;;;;;;;15.15;9.65;;;;;;;21.73;30.18;100495.80;1737932;80;21570;-82
2021/04/01 12:02:57;;;;;;;21.25;9.35;;;;;;;21.74;30.17;100492.00;1759749;80;21142;-79
2021/04/01 12:05:23;;;;;;;22.95;12.28;;;;;;;21.74;30.16;100495.55;1753343;80;21122;-79
2021/04/01 12:07:52;;;;;;;25.00;10.55;;;;;;;21.72;29.88;100486.79;1754101;80;21156;-84
2021/04/01 12:10:20;;;;;;;16.20;8.50;;;;;;;21.72;30.18;100483.23;1757731;80;21122;-80
2021/04/01 12:12:53;;;;;;;14.25;7.58;;;;;;;21.73;30.37;100482.16;1735821;81;21226;-82
2021/04/01 12:15:38;;;;;;;15.95;7.30;;;;;;;21.72;29.98;100476.41;1758486;80;21103;-80
2021/04/01 12:18:08;;;;;;;28.20;9.93;;;;;;;21.70;29.99;100471.17;1764414;80;21092;-79
2021/04/01 12:20:37;;;;;;;23.98;9.80;;;;;;;21.71;30.12;100469.27;1762445;80;21089;-79
2021/04/01 12:23:26;;;;;;;13.30;8.15;;;;;;;21.69;30.50;100461.34;1757372;80;21112;-81
2021/04/01 12:26:02;;;;;;;8.50;6.72;;;;;;;21.71;30.63;100458.38;1728033;81;21166;-83
2021/04/01 12:28:34;;;;;;;17.23;7.60;;;;;;;21.73;30.55;100453.53;1762438;80;21216;-82
2021/04/01 12:31:02;;;;;;;14.07;6.80;;;;;;;21.74;30.55;100448.38;1673618;83;21239;-82
2021/04/01 12:33:29;;;;;;;13.40;6.60;;;;;;;21.74;30.33;100443.75;1720033;81;22268;-78
2021/04/01 12:36:02;;;;;;;11.15;7.15;;;;;;;21.73;30.54;100442.09;1732940;81;22395;-84
2021/04/01 12:38:38;;;;;;;11.95;7.47;;;;;;;21.72;30.39;100437.71;1747798;80;22420;-81
2021/04/01 12:41:09;;;;;;;10.40;6.93;;;;;;;21.73;30.48;100445.36;1754735;80;21633;-80
2021/04/01 12:43:41;;;;;;;17.05;7.25;;;;;;;21.72;30.35;100439.08;1750243;80;21141;-79
2021/04/01 12:46:08;;;;;;;26.70;14.28;;;;;;;21.71;30.48;100435.20;1752401;80;21141;-81
2021/04/01 12:48:41;;;;;;;20.00;11.85;;;;;;;21.70;30.55;100433.01;1749838;80;21168;-84
2021/04/01 12:51:12;;;;;;;13.72;7.58;;;;;;;21.69;30.24;100426.44;1715491;81;21465;-79
2021/04/01 12:53:40;;;;;;;11.60;6.83;;;;;;;21.68;30.48;100422.05;1749971;80;21152;-80
2021/04/01 12:58:56;;;;;;;13.20;6.47;;;;;;;21.66;30.47;100403.19;1754316;80;21880;-83
2021/04/01 13:04:16;;;;;;;8.98;6.42;;;;;;;21.67;30.68;100404.87;1756164;80;21117;-79
2021/04/01 13:11:28;;;;;;;13.30;6.80;;;;;;;21.68;30.51;100390.70;1750094;80;21143;-78
2021/04/01 13:13:56;;;;;;;13.40;6.60;;;;;;;21.63;30.42;100388.67;1752430;80;21322;-80
2021/04/01 13:16:23;;;;;;;11.38;6.70;;;;;;;21.61;30.66;100390.78;1727635;80;21224;-80
2021/04/01 13:18:50;;;;;;;15.00;7.35;;;;;;;21.58;30.28;100391.27;1749842;80;21146;-78
2021/04/01 13:24:03;;;;;;;15.03;6.85;;;;;;;21.54;30.60;100381.89;1733035;80;21579;-79
2021/04/01 13:26:31;;;;;;;13.45;6.53;;;;;;;21.53;30.70;100381.06;1750854;80;21169;-80
2021/04/01 13:28:59;;;;;;;12.63;6.85;;;;;;;21.53;30.53;100370.70;1758823;80;21169;-81